Vue régionale

METAR et TAF

Jeudi 19 septembre 2019 à 12h25

Visibilités horizontales observées à différents aéroports. Les observations (METAR) et prévisions aéronautiques (TAF) complètes sont disponibles en cliquant sur l’icône correspondante.

  • Luxemburg (ELLX)

    Taf: TAF ELLX 190500Z 1906/2012 04010KT CAVOK=

    Metar: METAR ELLX 190950Z 05014KT CAVOK 13/02 Q1029 NOSIG=

  • Spangdahlem (ETAD)

    Taf: TAF AMD ETAD 190837Z 1908/2010 04012G18KT 9999 SCT025 QNH3036INS BECMG 1917/1918 05009KT 9999 SKC QNH3033INS BECMG 2007/2008 08012G18KT 9999 SKC QNH3031INS TX17/1914Z TN07/2005Z=

    Metar: nil

  • Metz/Nancy (LFJL)

    Taf: TAF LFJL 190500Z 1906/2006 05009KT CAVOK TEMPO 1909/1917 06012G22KT=

    Metar: nil

  • Saarbrücken/Intl (EDDR)

    Taf: TAF EDDR 190500Z 1906/2006 05009KT CAVOK=

    Metar: nil

  • Hahn (EDFH)

    Taf: TAF EDFH 190500Z 1906/2006 03007KT CAVOK BECMG 1922/1924 10007KT=

    Metar: nil

  • Ramstein (ETAR)

    Taf: TAF ETAR 191004Z 1910/2016 05009KT 9999 FEW050 QNH3035INS TEMPO 1910/1916 05015G20KT BECMG 1919/1920 05006KT 9999 SKC QNH3032INS BECMG 2007/2008 08009KT 9999 SKC QNH3024INS TEMPO 2010/2016 09012G18KT TX18/1915Z TN01/2004Z=

    Metar: nil

  • Nancy/Ochey (LFSO)

    Taf: TAF LFSO 190800Z 1909/2009 06010G20KT CAVOK BECMG 1921/1923 07010KT=

    Metar: nil

  • Liège Bierset (EBLG)

    Taf: TAF EBLG 190520Z 1906/2012 05006KT CAVOK=

    Metar: nil

  • Saint-Dizier (LFSI)

    Taf: TAF LFSI 190800Z 1909/2009 06010KT CAVOK=

    Metar: nil

  • Maastricht/Zuid Limburg (EHBK)

    Taf: TAF EHBK 190449Z 1906/2012 03005KT CAVOK=

    Metar: nil

  • Köln/Köln-Bonn (EDDK)

    Taf: TAF EDDK 190500Z 1906/2012 VRB03KT CAVOK BECMG 1908/1910 01006KT BECMG 1917/1920 10003KT=

    Metar: METAR EDDK 190950Z VRB04KT 9999 FEW035 13/05 Q1031 NOSIG=

  • Charleroi (EBCI)

    Taf: TAF EBCI 190520Z 1906/2012 04007KT CAVOK=

    Metar: nil

  • Wiesbaden (ETOU)

    Taf: TAF ETOU 190307Z 1903/2009 VRB06KT 9999 SCT050 QNH3034INS BECMG 1909/1910 VRB06KT 9999 SKC QNH3038INS TX18/1914Z TN05/1905Z=

    Metar: nil

  • Karlsruhe/Baden-Baden (EDSB)

    Taf: TAF EDSB 190500Z 1906/2006 03010KT CAVOK BECMG 1918/1921 03005KT=

    Metar: nil

  • Chalons/Vatry (LFOK)

    Taf: TAF LFOK 190500Z 1906/2006 04010KT CAVOK TEMPO 1909/1917 05017G27KT=

    Metar: nil

  • Frankfurt/Main (EDDF)

    Taf: TAF EDDF 190500Z 1906/2012 04007KT CAVOK=

    Metar: METAR EDDF 190950Z 03010KT 350V080 9999 FEW043 14/03 Q1030 NOSIG=

  • Brüssel (EBBR)

    Taf: TAF EBBR 190520Z 1906/2012 VRB03KT 9999 SCT045 BECMG 1911/1913 04010KT=

    Metar: METAR EBBR 190950Z 07003KT 360V150 9999 FEW048 15/06 Q1032 NOSIG=

  • Düsseldorf (EDDL)

    Taf: TAF EDDL 190500Z 1906/2012 VRB03KT CAVOK BECMG 1908/1911 01007KT BECMG 1916/1919 VRB03KT BECMG 2009/2012 09005KT=

    Metar: nil

  • Luxeuil (LFSX)

    Taf: TAF LFSX 190800Z 1909/2009 VRB02KT CAVOK BECMG 1912/1914 04012KT BECMG 1920/1922 VRB02KT=

    Metar: nil

  • Eindhoven (EHEH)

    Taf: TAF EHEH 190504Z 1906/2012 VRB01KT 9999 BKN035 BECMG 1909/1912 03005KT BECMG 2000/2003 VRB02KT 4000 BR MIFG PROB40 2001/2007 2000 BR MIFG BECMG 2006/2008 9999 NSW=

    Metar: nil

  • Niederrhein (EDLV)

    Taf: TAF EDLV 190500Z 1906/2006 VRB02KT CAVOK BECMG 1908/1911 36005KT BECMG 1916/1919 VRB02KT PROB30 TEMPO 2000/2006 4000 BR=

    Metar: nil

  • Dortmund/Wickede (EDLW)

    Taf: TAF EDLW 190500Z 1906/2006 21004KT CAVOK BECMG 1907/1910 36005KT BECMG 1917/1920 15004KT=

    Metar: nil

  • Stuttgart/Echterdingen (EDDS)

    Taf: TAF EDDS 190500Z 1906/2006 VRB03KT CAVOK BECMG 1907/1909 04008KT BECMG 1918/1921 04003KT=

    Metar: METAR EDDS 190950Z 07007KT 010V130 9999 FEW040 15/04 Q1028 NOSIG=

  • Basel-Mühlhausen (LFSB)

    Taf: TAF LFSB 190500Z 1906/2006 31004KT CAVOK TEMPO 1906/1907 FEW003 BKN260 BECMG 1909/1912 01011KT TEMPO 1910/1914 FEW050 BECMG 1918/1920 31004KT PROB40 TEMPO 1915/1919 08008KT=

    Metar: METAR LFSB 191000Z 36006KT 310V090 CAVOK 15/06 Q1026 NOSIG=

  • Lille (LFQQ)

    Taf: TAF LFQQ 190500Z 1906/2012 04005KT 9999 BKN045 BECMG 1907/1910 04015KT BECMG 1919/1921 04005KT BECMG 2007/2010 09015KT=

    Metar: nil

  • Paris/Charles de Gaulle (LFPG)

    Taf: TAF LFPG 190500Z 1906/2012 04010KT CAVOK TX20/1914Z TN08/1906Z TEMPO 1910/1919 05010G22KT TEMPO 2006/2012 07010G22KT=

    Metar: nil

  • Paderborn/Lippstadt (EDLP)

    Taf: TAF EDLP 190500Z 1906/2006 VRB02KT CAVOK BECMG 1908/1911 33005KT BECMG 1916/1919 22002KT=

    Metar: nil

  • Paris/Le Bourget (LFPB)

    Taf: TAF LFPB 190500Z 1906/2006 03008KT CAVOK TEMPO 1910/1919 05010G22KT=

    Metar: METAR LFPB 191000Z AUTO 04014KT 010V070 CAVOK 16/06 Q1029 NOSIG=

  • Rotterdam (EHRD)

    Taf: TAF EHRD 190456Z 1906/2012 VRB03KT 9999 SCT045 PROB30 TEMPO 1906/1909 7000 -DZ BECMG 1920/1923 6000 MIFG PROB40 1922/2006 2000 BCFG BECMG 2006/2008 9999 NSW=

    Metar: nil

  • Zürich/Kloten (LSZH)

    Taf: TAF LSZH 190825Z 1909/2015 04007KT CAVOK TX18/1914Z TN04/2005Z TX18/2014Z TEMPO 1910/1918 06012KT PROB40 TEMPO 1911/1915 06015G25KT BECMG 1920/1922 32005KT BECMG 2008/2010 05008KT=

    Metar: METAR LSZH 190950Z 06011KT 020V090 CAVOK 15/04 Q1026 NOSIG=

  • Oostende/Intl (EBOS)

    Taf: TAF EBOS 190520Z 1906/2012 VRB03KT 9999 SCT028 BECMG 2009/2011 09011KT=

    Metar: nil

  • Paris/Orly (LFPO)

    Taf: TAF LFPO 190500Z 1906/2012 04010KT CAVOK TEMPO 1913/1917 04015G25KT=

    Metar: nil

  • Beauvais (LFOB)

    Taf: TAF LFOB 190500Z 1906/2006 03010KT CAVOK BECMG 1910/1914 04015G25KT=

    Metar: nil

  • Münster/Intl (EDDG)

    Taf: TAF COR EDDG 190511Z 1906/2006 VRB02KT CAVOK PROB30 TEMPO 1906/1908 2000 BCFG BECMG 1908/1910 33006KT BECMG 1916/1919 VRB02KT TEMPO 2001/2006 2000 BCFG PROB30 TEMPO 2002/2006 0700 FG=

    Metar: METAR EDDG 190950Z 30007KT 260V040 9999 FEW035 14/05 Q1031 NOSIG=

  • Illesheim (ETIK)

    Taf: TAF ETIK 190607Z 1906/2012 VRB06KT 9999 FEW040 QNH3031INS BECMG 1910/1911 VRB06KT 9999 SCT050 QNH3034INS TX15/1914Z TN00/1906Z=

    Metar: nil

  • Duebendorf (LSMD)

    Taf: TAF LSMD 190925Z 1910/2016 06008KT CAVOK=

    Metar: nil

  • Villacoublay (LFPV)

    Taf: TAF LFPV 190800Z 1909/2009 05009KT CAVOK=

    Metar: nil

  • Payerne (LSMP)

    Taf: TAF LSMP 190925Z 1910/2016 06012KT CAVOK TEMPO 1910/1920 06017G30KT BECMG 1922/2001 VRB03KT PROB30 2003/2008 9999 BKN012=

    Metar: nil

  • Amsterdam/Schipol (EHAM)

    Taf: TAF EHAM 190456Z 1906/2012 VRB03KT 9999 SCT040 PROB30 TEMPO 1906/1909 7000 -DZ BECMG 1922/2001 6000 MIFG PROB30 2000/2006 2000 BCFG BECMG 2006/2008 9999 NSW=

    Metar: METAR EHAM 190955Z 04005KT 9999 FEW027 SCT038 15/09 Q1031 NOSIG=

  • Emmen (LSME)

    Taf: TAF LSME 190925Z 1910/2016 05008KT 9999 FEW040 BECMG 1912/1915 CAVOK=

    Metar: nil

  • Friedrichshafen (EDNY)

    Taf: TAF EDNY 190500Z 1906/2006 02008KT CAVOK TEMPO 1909/1917 05015G25KT=

    Metar: nil

  • Alpnach (LSMA)

    Taf: TAF LSMA 190925Z 1910/2016 07007KT 9999 SCT040 BECMG 1918/1921 CAVOK=

    Metar: nil

  • Meiringen (LSMM)

    Taf: TAF LSMM 190925Z 1910/2016 06012KT 9999 BKN040 TEMPO 1910/1921 06015G28KT BECMG 1921/1924 VRB03KT CAVOK=

    Metar: nil

  • Nürnberg (EDDN)

    Taf: TAF EDDN 190500Z 1906/2006 VRB03KT 9999 FEW045=

    Metar: METAR EDDN 190950Z 34008KT 290V040 9999 SCT042 13/01 Q1029 NOSIG=

  • Rouen (LFOP)

    Taf: TAF LFOP 190500Z 1906/2006 06010KT CAVOK TEMPO 1910/1914 06015G25KT=

    Metar: nil

  • Evreux (LFOE)

    Taf: TAF LFOE 190800Z 1909/2009 06010KT CAVOK BECMG 1909/1911 06015G25KT BECMG 1918/1921 06010KT=

    Metar: nil

  • Erfurt/Bindersleben (EDDE)

    Taf: TAF EDDE 190500Z 1906/2006 27008KT CAVOK BECMG 1908/1910 33007KT BECMG 1917/1919 26005KT=

    Metar: nil